createdAt,value
2023-09-10T00:03:18.566Z,16.40
2023-09-10T00:08:21.265Z,16.50
2023-09-10T00:13:24.547Z,16.40
2023-09-10T00:18:26.945Z,16.50
2023-09-10T00:23:29.307Z,16.60
2023-09-10T00:28:31.716Z,16.40
2023-09-10T00:33:34.080Z,16.30
2023-09-10T00:38:36.718Z,16.20
2023-09-10T00:43:39.343Z,16.20
2023-09-10T00:48:44.464Z,16.10
2023-09-10T00:53:47.116Z,16.30
2023-09-10T00:58:49.723Z,16.20
2023-09-10T01:03:52.271Z,16.20
2023-09-10T01:08:54.636Z,16.20
2023-09-10T01:14:34.708Z,16.10
2023-09-10T01:19:53.566Z,16.00
2023-09-10T01:24:57.223Z,15.80
2023-09-10T01:29:59.709Z,16.00
2023-09-10T01:35:21.975Z,15.90
2023-09-10T01:40:31.160Z,15.90
2023-09-10T01:45:36.302Z,15.80
2023-09-10T01:50:38.833Z,15.70
2023-09-10T01:55:41.825Z,15.80
2023-09-10T02:00:45.195Z,15.50
2023-09-10T02:05:47.542Z,15.70
2023-09-10T02:10:49.936Z,15.70
2023-09-10T02:15:52.682Z,15.60
2023-09-10T02:20:55.245Z,15.60
2023-09-10T02:25:57.697Z,15.60
2023-09-10T02:31:08.755Z,15.60
2023-09-10T02:36:11.316Z,15.50
2023-09-10T02:41:13.801Z,15.60
2023-09-10T02:46:16.422Z,15.50
2023-09-10T02:51:19.458Z,15.50
2023-09-10T02:56:21.928Z,15.50
2023-09-10T03:01:24.371Z,15.30
2023-09-10T03:06:26.845Z,15.30
2023-09-10T03:11:29.365Z,15.40
2023-09-10T03:16:32.651Z,15.10
2023-09-10T03:21:38.327Z,15.10
2023-09-10T03:26:42.102Z,15.10
2023-09-10T03:31:44.828Z,15.10
2023-09-10T03:36:47.484Z,15.10
2023-09-10T03:41:50.111Z,15.10
2023-09-10T03:46:54.504Z,15.10
2023-09-10T03:51:58.867Z,15.10
2023-09-10T03:57:01.466Z,15.00
2023-09-10T04:02:04.469Z,14.90
2023-09-10T04:07:07.049Z,14.90
2023-09-10T04:12:09.547Z,14.90
2023-09-10T04:17:17.336Z,14.90
2023-09-10T04:22:19.794Z,15.00
2023-09-10T04:27:22.271Z,14.90
2023-09-10T04:32:24.795Z,14.90
2023-09-10T04:37:28.029Z,15.00
2023-09-10T04:42:31.967Z,14.90
2023-09-10T04:47:36.250Z,14.90
2023-09-10T04:52:39.529Z,15.10
2023-09-10T04:57:41.990Z,15.20
2023-09-10T05:02:47.722Z,15.30
2023-09-10T05:07:51.483Z,15.20
2023-09-10T05:12:54.097Z,15.30
2023-09-10T05:17:56.630Z,15.40
2023-09-10T05:22:59.531Z,15.50
2023-09-10T05:28:02.092Z,15.70
2023-09-10T05:33:05.195Z,15.80
2023-09-10T05:38:10.021Z,16.10
2023-09-10T05:43:12.701Z,16.40
2023-09-10T05:48:15.551Z,16.90
2023-09-10T05:53:18.742Z,17.10
2023-09-10T05:58:21.909Z,17.70
2023-09-10T06:03:25.282Z,17.80
2023-09-10T06:08:28.734Z,17.90
2023-09-10T06:13:32.151Z,18.30
2023-09-10T06:18:35.775Z,18.60
2023-09-10T06:23:38.233Z,18.90
2023-09-10T06:28:41.643Z,19.30
2023-09-10T06:33:44.353Z,19.50
2023-09-10T06:38:49.336Z,19.90
2023-09-10T06:43:52.791Z,20.00
2023-09-10T06:48:58.500Z,20.20
2023-09-10T06:54:01.130Z,20.80
2023-09-10T06:59:03.713Z,21.00
2023-09-10T07:04:32.564Z,21.20
2023-09-10T07:09:43.715Z,21.30
2023-09-10T07:14:46.186Z,21.60
2023-09-10T07:19:48.621Z,21.80
2023-09-10T07:24:51.015Z,22.10
2023-09-10T07:29:53.403Z,22.20
2023-09-10T07:34:55.935Z,22.50
2023-09-10T07:39:58.352Z,22.50
2023-09-10T07:45:00.775Z,23.00
2023-09-10T07:50:03.633Z,23.10
2023-09-10T07:55:06.647Z,23.20
2023-09-10T08:00:09.888Z,23.60
2023-09-10T08:05:15.415Z,23.60
2023-09-10T08:10:17.825Z,24.10
2023-09-10T08:15:20.269Z,24.60
2023-09-10T08:20:23.299Z,24.60
2023-09-10T08:25:25.777Z,24.80
2023-09-10T08:30:28.835Z,24.80
2023-09-10T08:35:49.708Z,25.20
2023-09-10T08:41:01.303Z,25.40
2023-09-10T08:46:07.203Z,25.40
2023-09-10T08:51:12.212Z,25.90
2023-09-10T08:56:15.967Z,25.40
2023-09-10T09:01:20.069Z,26.00
2023-09-10T09:06:23.672Z,26.10
2023-09-10T09:11:32.448Z,26.30
2023-09-10T09:16:36.272Z,26.50
2023-09-10T09:21:42.228Z,26.90
2023-09-10T09:26:44.908Z,26.70
2023-09-10T09:31:47.359Z,26.80
2023-09-10T09:36:53.147Z,26.90
2023-09-10T09:41:55.731Z,27.00
2023-09-10T09:47:02.566Z,27.00
2023-09-10T09:52:06.632Z,27.20
2023-09-10T09:57:11.913Z,27.40
2023-09-10T10:02:16.515Z,27.60
2023-09-10T10:07:26.292Z,27.40
2023-09-10T10:12:32.977Z,27.50
2023-09-10T10:17:36.559Z,28.00
2023-09-10T10:22:39.928Z,28.00
2023-09-10T10:27:45.129Z,28.30
2023-09-10T10:32:50.973Z,28.20
2023-09-10T10:37:58.992Z,28.30
2023-09-10T10:43:24.905Z,28.20
2023-09-10T10:48:31.887Z,28.20
2023-09-10T10:53:36.025Z,28.50
2023-09-10T10:58:43.348Z,28.60
2023-09-10T11:03:48.711Z,28.60
2023-09-10T11:08:51.204Z,28.60
2023-09-10T11:14:06.692Z,29.00
2023-09-10T11:19:29.088Z,29.10
2023-09-10T11:24:34.069Z,29.10
2023-09-10T11:29:36.950Z,28.80
2023-09-10T11:34:40.243Z,29.10
2023-09-10T11:39:44.055Z,28.90
2023-09-10T11:44:47.407Z,29.10
2023-09-10T11:49:50.079Z,29.10
2023-09-10T11:54:53.216Z,29.00
2023-09-10T11:59:55.596Z,29.10
2023-09-10T12:05:00.948Z,29.50
2023-09-10T12:10:04.480Z,29.60
2023-09-10T12:15:07.780Z,29.20
2023-09-10T12:20:11.490Z,29.50
2023-09-10T12:25:14.257Z,29.50
2023-09-10T12:30:16.757Z,29.40
2023-09-10T12:35:19.458Z,29.40
2023-09-10T12:40:22.822Z,29.50
2023-09-10T12:45:25.759Z,29.60
2023-09-10T12:50:28.353Z,29.50
2023-09-10T12:55:33.142Z,29.70
2023-09-10T13:00:35.654Z,30.00
2023-09-10T13:05:38.130Z,30.00
2023-09-10T13:10:41.027Z,29.90
2023-09-10T13:15:43.730Z,30.20
2023-09-10T13:20:46.110Z,29.90
2023-09-10T13:25:50.398Z,30.00
2023-09-10T13:30:52.848Z,29.90
2023-09-10T13:35:55.427Z,29.80
2023-09-10T13:40:58.010Z,29.70
2023-09-10T13:46:00.619Z,29.50
2023-09-10T13:51:02.992Z,29.30
2023-09-10T13:56:05.533Z,29.30
2023-09-10T14:01:11.316Z,29.40
2023-09-10T14:06:13.832Z,29.30
2023-09-10T14:11:16.742Z,29.30
2023-09-10T14:16:22.334Z,29.20
2023-09-10T14:21:24.911Z,28.90
2023-09-10T14:26:27.608Z,29.00
2023-09-10T14:31:30.140Z,28.90
2023-09-10T14:36:32.619Z,28.90
2023-09-10T14:41:35.151Z,28.70
2023-09-10T14:46:38.148Z,28.80
2023-09-10T14:51:43.636Z,28.80
2023-09-10T14:56:46.167Z,28.70
2023-09-10T15:01:48.864Z,28.60
2023-09-10T15:06:52.565Z,28.50
2023-09-10T15:11:55.323Z,28.30
2023-09-10T15:16:57.837Z,28.20
2023-09-10T15:22:03.216Z,28.10
2023-09-10T15:27:05.783Z,28.00
2023-09-10T15:32:08.165Z,28.00
2023-09-10T15:37:10.653Z,28.00
2023-09-10T15:42:27.869Z,27.90
2023-09-10T15:47:31.420Z,27.70
2023-09-10T15:52:33.973Z,27.50
2023-09-10T15:57:36.400Z,27.40
2023-09-10T16:02:41.579Z,27.20
2023-09-10T16:07:44.207Z,27.00
2023-09-10T16:12:47.983Z,26.90
2023-09-10T16:17:50.463Z,26.70
2023-09-10T16:22:53.031Z,26.50
2023-09-10T16:27:55.403Z,26.30
2023-09-10T16:32:57.842Z,26.10
2023-09-10T16:38:00.434Z,25.90
2023-09-10T16:43:03.770Z,25.60
2023-09-10T16:48:06.390Z,25.50
2023-09-10T16:53:08.887Z,25.30
2023-09-10T16:58:11.298Z,25.20
2023-09-10T17:03:14.155Z,24.90
2023-09-10T17:08:16.712Z,24.60
2023-09-10T17:13:19.853Z,24.40
2023-09-10T17:18:22.350Z,24.20
2023-09-10T17:23:24.784Z,24.00
2023-09-10T17:28:27.631Z,23.80
2023-09-10T17:33:30.109Z,23.60
2023-09-10T17:38:32.624Z,23.30
2023-09-10T17:43:35.101Z,23.10
2023-09-10T17:48:37.473Z,23.00
2023-09-10T17:53:40.293Z,22.80
2023-09-10T17:58:43.010Z,22.70
2023-09-10T18:03:46.268Z,22.50
2023-09-10T18:08:48.845Z,22.40
2023-09-10T18:13:51.190Z,22.20
2023-09-10T18:18:53.661Z,22.10
2023-09-10T18:23:56.062Z,22.00
2023-09-10T18:28:58.450Z,21.80
2023-09-10T18:34:00.798Z,21.70
2023-09-10T18:39:03.969Z,21.60
2023-09-10T18:44:06.924Z,21.50
2023-09-10T18:49:09.352Z,21.30
2023-09-10T18:54:11.971Z,21.20
2023-09-10T18:59:14.339Z,21.00
2023-09-10T19:04:19.066Z,21.00
2023-09-10T19:09:21.636Z,20.80
2023-09-10T19:14:24.224Z,20.70
2023-09-10T19:19:28.475Z,20.60
2023-09-10T19:24:31.178Z,20.50
2023-09-10T19:29:33.952Z,20.30
2023-09-10T19:34:36.801Z,20.40
2023-09-10T19:39:39.238Z,20.20
2023-09-10T19:44:42.978Z,20.20
2023-09-10T19:49:46.440Z,20.00
2023-09-10T19:55:06.996Z,19.90
2023-09-10T20:00:13.472Z,19.70
2023-09-10T20:05:16.687Z,19.70
2023-09-10T20:10:21.838Z,19.60
2023-09-10T20:15:26.632Z,19.40
2023-09-10T20:20:29.424Z,19.40
2023-09-10T20:25:32.550Z,19.40
2023-09-10T20:30:36.605Z,19.30
2023-09-10T20:35:40.701Z,19.30
2023-09-10T20:40:43.829Z,19.20
2023-09-10T20:45:47.365Z,19.10
2023-09-10T20:50:49.966Z,19.10
2023-09-10T20:55:52.399Z,19.00
2023-09-10T21:00:55.218Z,18.90
2023-09-10T21:06:01.326Z,18.80
2023-09-10T21:11:07.465Z,18.80
2023-09-10T21:16:10.334Z,18.60
2023-09-10T21:21:12.768Z,18.70
2023-09-10T21:26:15.287Z,18.70
2023-09-10T21:31:17.742Z,18.60
2023-09-10T21:36:20.113Z,18.70
2023-09-10T21:41:22.547Z,18.60
2023-09-10T21:46:25.133Z,18.50
2023-09-10T21:51:27.887Z,18.40
2023-09-10T21:56:31.244Z,18.40
2023-09-10T22:01:34.808Z,18.40
2023-09-10T22:06:37.412Z,18.10
2023-09-10T22:11:39.826Z,18.20
2023-09-10T22:16:42.307Z,18.10
2023-09-10T22:21:44.657Z,18.20
2023-09-10T22:26:47.169Z,18.10
2023-09-10T22:31:49.779Z,18.00
2023-09-10T22:36:53.170Z,18.00
2023-09-10T22:41:55.587Z,18.00
2023-09-10T22:46:58.140Z,17.90
2023-09-10T22:52:00.532Z,17.90
2023-09-10T22:57:03.337Z,17.80
2023-09-10T23:02:06.053Z,17.60
2023-09-10T23:07:09.373Z,17.60
2023-09-10T23:12:11.745Z,17.50
2023-09-10T23:17:14.167Z,17.50
2023-09-10T23:22:16.543Z,17.60
2023-09-10T23:27:18.949Z,17.50
2023-09-10T23:32:21.340Z,17.40
2023-09-10T23:37:24.566Z,17.40
2023-09-10T23:42:27.089Z,17.20
2023-09-10T23:47:29.515Z,17.20
2023-09-10T23:52:31.897Z,17.20
2023-09-10T23:57:34.297Z,17.20
